Time;durP1;ratioP1;P1;durP2;ratioP2;P2;SDS_P1;SDS_P2;PMS_P1;PMS_P2;Temp;Humidity;BMP_temperature;BMP_pressure;BME280_temperature;BME280_humidity;BME280_pressure;Samples;Min_cycle;Max_cycle;Signal;HPM_P1;HPM_P2
2021/12/12 00:00:03;;;;;;;60.22;27.38;;;;;;;;;;5051559;28;20041;-67
2021/12/12 00:05:16;;;;;;;64.65;27.83;;;;;;;;;;5053320;28;20449;-67
2021/12/12 00:07:42;;;;;;;51.17;25.08;;;4.50;99.90;;;;;;5052826;28;20045;-67
2021/12/12 00:10:15;;;;;;;59.92;26.63;;;;;;;;;;5053983;28;20109;-67
2021/12/12 00:12:46;;;;;;;58.75;27.23;;;4.50;99.90;;;;;;5053068;28;20048;-67
2021/12/12 00:15:13;;;;;;;58.78;25.98;;;4.50;99.90;;;;;;5052813;28;20621;-68
2021/12/12 00:17:39;;;;;;;51.33;25.20;;;;;;;;;;5052432;28;20049;-67
2021/12/12 00:20:07;;;;;;;59.20;26.85;;;4.50;99.90;;;;;;5052616;28;20045;-67
2021/12/12 00:22:33;;;;;;;58.00;25.77;;;;;;;;;;5052872;28;20041;-67
2021/12/12 00:24:59;;;;;;;49.53;24.35;;;4.40;99.90;;;;;;5052546;28;20045;-67
2021/12/12 00:27:25;;;;;;;49.22;24.52;;;4.50;99.90;;;;;;5052109;28;20172;-67
2021/12/12 00:29:51;;;;;;;58.75;24.98;;;;;;;;;;5052419;28;20124;-67
2021/12/12 00:32:18;;;;;;;55.88;25.20;;;4.60;99.90;;;;;;5052446;28;20128;-67
2021/12/12 00:34:48;;;;;;;50.85;25.30;;;;;;;;;;5052383;28;20045;-67
2021/12/12 00:37:14;;;;;;;58.63;24.50;;;4.50;99.90;;;;;;5052316;28;20422;-67
2021/12/12 00:39:44;;;;;;;51.35;24.50;;;4.50;99.90;;;;;;5052168;28;20098;-67
2021/12/12 00:42:14;;;;;;;47.97;24.67;;;4.70;99.90;;;;;;5052184;28;20040;-67
2021/12/12 00:44:45;;;;;;;51.13;25.00;;;4.60;99.90;;;;;;5052543;28;20395;-67
2021/12/12 00:47:11;;;;;;;58.42;26.08;;;;;;;;;;5051317;28;20045;-67
2021/12/12 00:49:39;;;;;;;42.75;23.63;;;;;;;;;;5052323;28;20545;-67
2021/12/12 00:52:08;;;;;;;53.75;26.00;;;4.60;99.90;;;;;;5052059;28;20132;-67
2021/12/12 00:54:35;;;;;;;46.53;24.48;;;4.60;99.90;;;;;;5052011;28;20079;-67
2021/12/12 00:57:03;;;;;;;54.58;25.15;;;;;;;;;;5051787;28;20043;-67
2021/12/12 00:59:29;;;;;;;50.45;25.85;;;4.70;99.90;;;;;;5052174;28;20052;-67
2021/12/12 01:01:55;;;;;;;53.70;24.70;;;4.60;99.90;;;;;;5052217;28;20094;-67
2021/12/12 01:04:27;;;;;;;58.90;27.83;;;4.70;99.90;;;;;;5051811;28;20037;-67
2021/12/12 01:06:54;;;;;;;60.08;26.95;;;;;;;;;;5051454;28;20041;-67
2021/12/12 01:09:25;;;;;;;51.70;27.08;;;4.50;99.90;;;;;;5034884;28;20676;-67
2021/12/12 01:11:52;;;;;;;53.97;27.27;;;;;;;;;;5051283;28;20093;-67
2021/12/12 01:14:25;;;;;;;47.95;25.80;;;4.50;99.90;;;;;;5051632;28;20041;-67
2021/12/12 01:16:58;;;;;;;55.42;26.38;;;;;;;;;;5034518;28;20127;-67
2021/12/12 01:19:35;;;;;;;54.13;26.48;;;4.80;99.90;;;;;;5051577;28;20112;-67
2021/12/12 01:22:07;;;;;;;56.22;27.10;;;4.70;99.90;;;;;;5051809;28;20448;-67
2021/12/12 01:24:45;;;;;;;52.58;27.35;;;;;;;;;;5051415;28;20055;-66
2021/12/12 01:27:11;;;;;;;59.25;26.38;;;4.70;99.90;;;;;;5051295;28;20131;-67
2021/12/12 01:29:37;;;;;;;56.92;27.90;;;;;;;;;;5051510;28;20086;-67
2021/12/12 01:32:09;;;;;;;53.08;26.92;;;4.70;99.90;;;;;;5051356;28;20041;-67
2021/12/12 01:34:35;;;;;;;52.28;27.50;;;4.70;99.90;;;;;;5051358;28;20609;-67
2021/12/12 01:37:12;;;;;;;61.60;27.48;;;;;;;;;;5051194;28;20132;-67
2021/12/12 01:39:45;;;;;;;56.13;28.10;;;4.70;99.90;;;;;;5051403;28;20411;-67
2021/12/12 01:42:11;;;;;;;56.30;27.77;;;;;;;;;;5051374;28;20052;-67
2021/12/12 01:45:06;;;;;;;56.75;28.70;;;;;;;;;;5051050;28;20410;-67
2021/12/12 01:47:38;;;;;;;60.15;27.17;;;4.80;99.90;;;;;;5033299;28;20052;-67
2021/12/12 01:50:09;;;;;;;64.13;27.75;;;;;;;;;;5050878;28;20045;-67
2021/12/12 01:52:35;;;;;;;58.47;28.00;;;4.80;99.90;;;;;;5051168;28;20048;-67
2021/12/12 01:55:12;;;;;;;56.17;28.05;;;;;;;;;;5050845;28;20036;-67
2021/12/12 01:57:39;;;;;;;62.05;26.30;;;;;;;;;;5050966;28;20410;-67
2021/12/12 02:00:19;;;;;;;55.15;25.88;;;4.80;99.90;;;;;;5050799;28;20494;-67
2021/12/12 02:02:45;;;;;;;59.00;26.95;;;;;;;;;;5051095;28;20518;-67
2021/12/12 02:05:16;;;;;;;61.92;27.55;;;4.60;99.90;;;;;;5034356;28;20044;-67
2021/12/12 02:07:44;;;;;;;64.05;26.67;;;;;;;;;;5050605;28;20033;-67
2021/12/12 02:10:15;;;;;;;51.67;27.40;;;4.90;99.90;;;;;;5050465;28;20037;-67
2021/12/12 02:12:42;;;;;;;61.17;27.45;;;4.80;99.90;;;;;;5050795;28;20045;-67
2021/12/12 02:15:10;;;;;;;59.50;26.48;;;4.70;99.90;;;;;;5033963;28;20490;-67
2021/12/12 02:17:42;;;;;;;58.80;27.25;;;;;;;;;;5050877;28;20045;-67
2021/12/12 02:20:19;;;;;;;54.97;26.23;;;;;;;;;;5050954;28;20120;-67
2021/12/12 02:36:18;;;;;;;62.13;27.85;;;;;;;;;;5050169;28;20098;-67
2021/12/12 02:38:45;;;;;;;64.93;28.27;;;;;;;;;;5051819;28;20045;-67
2021/12/12 02:41:17;;;;;;;53.90;25.35;;;4.90;99.90;;;;;;5050565;28;20044;-68
2021/12/12 02:43:51;;;;;;;55.45;27.60;;;5.00;99.90;;;;;;5050359;28;20119;-68
2021/12/12 02:46:20;;;;;;;53.58;24.70;;;;;;;;;;5049715;28;20475;-67
2021/12/12 02:48:48;;;;;;;54.47;25.60;;;5.00;99.90;;;;;;5050469;28;20040;-67
2021/12/12 02:51:18;;;;;;;53.65;26.25;;;5.10;99.90;;;;;;5050212;28;20037;-67
2021/12/12 02:53:46;;;;;;;48.85;26.17;;;;;;;;;;5051476;28;20494;-67
2021/12/12 02:56:16;;;;;;;53.72;25.83;;;4.90;99.90;;;;;;5049761;28;20075;-67
2021/12/12 02:58:43;;;;;;;55.17;24.80;;;;;;;;;;5050604;28;20258;-67
2021/12/12 03:01:20;;;;;;;49.58;24.90;;;5.00;99.90;;;;;;5050339;28;20072;-67
2021/12/12 03:03:48;;;;;;;53.08;24.98;;;5.00;99.90;;;;;;5033740;28;20457;-67
2021/12/12 03:06:20;;;;;;;60.67;25.00;;;5.30;99.90;;;;;;5049664;28;20063;-67
2021/12/12 03:08:49;;;;;;;49.58;24.67;;;;;;;;;;5049851;28;20080;-67
2021/12/12 03:11:15;;;;;;;51.78;24.27;;;5.10;99.90;;;;;;5049985;28;20123;-67
2021/12/12 03:13:42;;;;;;;54.67;24.27;;;5.10;99.90;;;;;;5050033;28;20037;-67
2021/12/12 03:16:08;;;;;;;46.58;25.00;;;5.20;99.90;;;;;;5049947;28;20124;-67
2021/12/12 03:18:39;;;;;;;49.20;24.48;;;;;;;;;;5050333;28;20040;-68
2021/12/12 03:21:14;;;;;;;52.28;24.60;;;5.10;99.90;;;;;;5050171;28;20049;-67
2021/12/12 03:23:41;;;;;;;50.33;23.30;;;;;;;;;;5050145;28;20094;-67
2021/12/12 03:26:10;;;;;;;48.70;23.75;;;5.40;99.90;;;;;;5049550;28;20033;-67
2021/12/12 03:28:38;;;;;;;46.25;22.02;;;;;;;;;;5049837;28;20048;-67
2021/12/12 03:31:11;;;;;;;42.00;22.67;;;5.00;99.90;;;;;;5050118;28;20413;-67
2021/12/12 03:33:38;;;;;;;42.08;21.67;;;5.30;99.90;;;;;;5049840;28;20044;-67
2021/12/12 03:36:06;;;;;;;38.00;19.35;;;;;;;;;;5053375;28;20045;-67
2021/12/12 03:38:32;;;;;;;40.45;20.52;;;;;;;;;;5053422;28;20045;-67
2021/12/12 03:41:02;;;;;;;36.53;20.38;;;;;;;;;;5053466;28;20045;-67
2021/12/12 03:43:28;;;;;;;37.45;20.95;;;;;;;;;;5053617;28;20041;-67
2021/12/12 03:45:54;;;;;;;41.58;20.85;;;;;;;;;;5052630;28;20087;-67
2021/12/12 03:48:28;;;;;;;36.45;20.08;;;5.10;99.90;;;;;;5036666;28;20068;-67
2021/12/12 03:51:04;;;;;;;36.55;19.55;;;5.40;99.90;;;;;;5053303;28;20116;-67
2021/12/12 03:53:31;;;;;;;36.60;20.00;;;;;;;;;;5053497;28;20409;-67
2021/12/12 03:55:58;;;;;;;35.47;17.73;;;5.30;99.90;;;;;;5052870;28;20045;-67
2021/12/12 03:58:24;;;;;;;31.55;18.33;;;5.30;99.90;;;;;;5054284;28;20068;-67
2021/12/12 04:01:13;;;;;;;35.35;17.02;;;5.30;99.90;;;;;;5053097;28;20037;-67
2021/12/12 04:03:40;;;;;;;29.70;17.05;;;;;;;;;;5053199;28;20095;-67
2021/12/12 04:06:08;;;;;;;33.25;16.98;;;;;;;;;;5052808;28;20402;-67
2021/12/12 04:08:36;;;;;;;29.58;15.88;;;;;;;;;;5053095;28;20095;-67
2021/12/12 04:11:04;;;;;;;39.55;17.08;;;5.50;99.90;;;;;;5053135;28;20049;-68
2021/12/12 04:13:30;;;;;;;32.15;16.38;;;;;;;;;;5052759;28;20041;-67
2021/12/12 04:15:57;;;;;;;28.40;15.88;;;5.30;99.90;;;;;;5052772;28;20421;-67
2021/12/12 04:18:24;;;;;;;29.45;15.20;;;;;;;;;;5052957;28;20060;-67
2021/12/12 04:20:50;;;;;;;29.17;16.67;;;5.30;99.90;;;;;;5052667;28;20087;-67
2021/12/12 04:23:27;;;;;;;21.67;13.98;;;5.20;99.90;;;;;;5053888;28;20040;-67
2021/12/12 04:25:53;;;;;;;26.30;14.93;;;;;;;;;;5052677;28;20051;-67
2021/12/12 04:28:19;;;;;;;22.77;13.98;;;;;;;;;;5052437;28;20541;-67
2021/12/12 04:30:45;;;;;;;24.75;15.10;;;;;;;;;;5052774;28;20049;-67
2021/12/12 04:33:12;;;;;;;23.10;14.45;;;5.30;99.90;;;;;;5052772;28;20454;-67
2021/12/12 04:35:38;;;;;;;23.60;14.23;;;5.70;99.90;;;;;;5052127;28;20033;-67
2021/12/12 04:38:04;;;;;;;24.30;14.43;;;5.60;99.90;;;;;;5052343;28;20055;-67
2021/12/12 04:40:31;;;;;;;22.50;14.10;;;;;;;;;;5052371;28;20037;-68
2021/12/12 04:42:57;;;;;;;24.77;13.52;;;;;;;;;;5052360;28;20041;-67
2021/12/12 04:45:42;;;;;;;25.80;15.00;;;;;;;;;;5051713;28;20475;-67
2021/12/12 04:50:58;;;;;;;23.63;14.25;;;5.60;99.90;;;;;;5052165;28;20044;-67
2021/12/12 04:53:52;;;;;;;22.98;14.45;;;5.60;99.90;;;;;;5052182;28;20069;-67
2021/12/12 04:57:05;;;;;;;23.67;13.52;;;5.50;99.90;;;;;;5039403;28;20116;-67
2021/12/12 04:59:56;;;;;;;24.15;13.98;;;5.50;99.90;;;;;;5008444;28;20132;-67
2021/12/12 05:02:31;;;;;;;22.08;13.85;;;5.60;99.90;;;;;;5051860;28;20044;-67
2021/12/12 05:05:08;;;;;;;21.30;14.52;;;5.70;99.90;;;;;;5051855;28;20380;-67
2021/12/12 05:07:52;;;;;;;25.50;14.30;;;5.80;99.90;;;;;;5034898;28;20128;-67
2021/12/12 05:10:22;;;;;;;22.05;14.27;;;;;;;;;;5035206;28;20080;-67
2021/12/12 05:12:57;;;;;;;25.25;15.93;;;5.70;99.90;;;;;;5052044;28;20094;-67
2021/12/12 05:15:31;;;;;;;25.55;15.07;;;5.70;99.90;;;;;;5051453;28;20044;-67
2021/12/12 05:18:34;;;;;;;24.30;15.88;;;5.70;99.90;;;;;;5051806;28;20041;-67
2021/12/12 05:21:08;;;;;;;29.85;16.92;;;;;;;;;;5008268;28;20456;-67
2021/12/12 05:23:35;;;;;;;26.55;16.50;;;;;;;;;;5051539;28;20041;-67
2021/12/12 05:26:06;;;;;;;26.23;17.05;;;5.70;99.90;;;;;;5052504;28;20405;-67
2021/12/12 05:28:34;;;;;;;27.48;16.55;;;;;;;;;;5051381;28;20091;-67
2021/12/12 05:31:00;;;;;;;26.52;16.13;;;;;;;;;;5051709;28;20199;-68
2021/12/12 05:33:29;;;;;;;27.52;16.95;;;5.80;99.90;;;;;;5051594;28;20460;-67
2021/12/12 05:35:56;;;;;;;26.67;17.25;;;5.80;99.90;;;;;;5051184;28;20489;-67
2021/12/12 05:38:23;;;;;;;31.27;17.27;;;;;;;;;;5051243;28;20044;-67
2021/12/12 05:40:49;;;;;;;29.30;17.98;;;;;;;;;;5051807;28;20041;-67
2021/12/12 05:43:16;;;;;;;30.23;18.75;;;5.70;99.90;;;;;;5051111;28;20068;-67
2021/12/12 05:45:43;;;;;;;34.05;20.63;;;;;;;;;;5050768;28;20044;-67
2021/12/12 05:48:09;;;;;;;33.13;19.40;;;5.80;99.90;;;;;;5050570;28;20049;-67
2021/12/12 05:50:36;;;;;;;30.23;18.30;;;5.70;99.90;;;;;;5050994;28;20064;-67
2021/12/12 05:53:02;;;;;;;32.63;18.60;;;5.80;99.90;;;;;;5050947;28;20047;-67
2021/12/12 05:55:31;;;;;;;33.95;18.63;;;5.80;99.90;;;;;;5034065;28;20119;-67
2021/12/12 05:58:00;;;;;;;31.27;18.48;;;5.80;99.90;;;;;;5050714;28;20094;-67
2021/12/12 06:00:29;;;;;;;30.90;18.40;;;;;;;;;;5050879;28;20056;-67
2021/12/12 06:02:56;;;;;;;34.42;20.33;;;;;;;;;;5050715;28;20494;-67
2021/12/12 06:05:22;;;;;;;32.75;19.77;;;;;;;;;;5050525;28;20067;-67
2021/12/12 06:07:49;;;;;;;28.70;18.33;;;5.90;99.90;;;;;;5050713;28;20040;-67
2021/12/12 06:10:17;;;;;;;36.33;20.58;;;;;;;;;;5051774;28;20040;-67
2021/12/12 06:12:44;;;;;;;32.60;20.05;;;5.80;99.90;;;;;;5050586;28;20088;-67
2021/12/12 06:15:14;;;;;;;31.48;19.75;;;5.90;99.90;;;;;;5050623;28;20044;-67
2021/12/12 06:17:41;;;;;;;33.15;20.50;;;;;;;;;;5050261;28;20041;-67
2021/12/12 06:20:09;;;;;;;37.22;21.63;;;5.90;99.90;;;;;;5050650;28;20091;-67
2021/12/12 06:22:35;;;;;;;38.83;21.40;;;5.90;99.90;;;;;;5051686;28;20098;-67
2021/12/12 06:25:01;;;;;;;36.13;20.65;;;;;;;;;;5050488;28;20049;-67
2021/12/12 06:27:29;;;;;;;44.05;23.02;;;;;;;;;;5051389;28;20077;-67
2021/12/12 06:29:55;;;;;;;53.20;24.70;;;5.90;99.90;;;;;;5050403;28;20048;-67
2021/12/12 06:32:21;;;;;;;44.42;22.80;;;;;;;;;;5051820;28;20037;-67
2021/12/12 06:34:48;;;;;;;39.55;21.65;;;;;;;;;;5050679;28;20440;-67
2021/12/12 06:37:16;;;;;;;43.05;21.83;;;6.00;99.90;;;;;;5050453;28;20466;-67
2021/12/12 06:39:43;;;;;;;37.30;21.75;;;6.10;99.90;;;;;;5050610;28;20445;-67
2021/12/12 06:42:09;;;;;;;43.67;22.25;;;;;;;;;;5050202;28;20049;-67
2021/12/12 06:44:40;;;;;;;38.33;20.90;;;6.20;99.90;;;;;;5050576;28;20449;-67
2021/12/12 06:47:08;;;;;;;44.70;22.98;;;;;;;;;;5049486;28;20466;-67
2021/12/12 06:49:34;;;;;;;39.17;21.50;;;;;;;;;;5050201;28;20040;-67
2021/12/12 06:52:02;;;;;;;46.72;23.40;;;5.80;99.90;;;;;;5050151;28;20126;-67
2021/12/12 06:54:30;;;;;;;41.60;22.58;;;6.00;99.90;;;;;;5050236;28;20048;-67
2021/12/12 06:57:00;;;;;;;41.70;21.80;;;6.00;99.90;;;;;;5049845;28;20049;-67
2021/12/12 06:59:29;;;;;;;40.72;22.02;;;6.30;99.90;;;;;;5050064;28;20049;-67
2021/12/12 07:01:55;;;;;;;40.92;21.52;;;6.20;99.90;;;;;;5033767;28;20056;-67
2021/12/12 07:04:22;;;;;;;44.53;23.17;;;;;;;;;;5050326;28;20041;-67
2021/12/12 07:06:52;;;;;;;46.30;24.08;;;6.10;99.90;;;;;;5049687;28;20045;-67
2021/12/12 07:09:18;;;;;;;48.75;23.92;;;6.30;99.90;;;;;;5051330;28;20473;-67
2021/12/12 07:11:46;;;;;;;51.53;24.88;;;6.10;99.90;;;;;;5054029;28;20068;-67
2021/12/12 07:14:12;;;;;;;45.88;22.55;;;;;;;;;;5055385;28;20091;-67
2021/12/12 07:16:38;;;;;;;52.78;24.70;;;6.40;99.90;;;;;;5054872;28;20084;-67
2021/12/12 07:19:05;;;;;;;52.25;24.15;;;6.40;99.90;;;;;;5053778;28;20091;-67
2021/12/12 07:21:31;;;;;;;52.67;24.27;;;6.30;99.90;;;;;;5054154;28;20376;-67
2021/12/12 07:23:59;;;;;;;47.72;24.33;;;;;;;;;;5053833;28;20047;-67
2021/12/12 07:26:25;;;;;;;48.33;23.35;;;;;;;;;;5053326;28;20044;-67
2021/12/12 07:28:52;;;;;;;53.05;23.80;;;6.20;99.90;;;;;;5053630;28;20044;-67
2021/12/12 07:31:32;;;;;;;55.88;24.63;;;6.50;99.90;;;;;;5053628;28;20032;-67
2021/12/12 07:34:00;;;;;;;64.75;26.33;;;6.30;99.90;;;;;;5053641;28;20090;-67
2021/12/12 07:36:30;;;;;;;59.40;25.65;;;6.20;99.90;;;;;;5036679;28;20052;-67
2021/12/12 07:38:57;;;;;;;62.45;27.02;;;;;;;;;;5053846;28;20057;-67
2021/12/12 07:41:28;;;;;;;58.60;25.45;;;6.50;99.90;;;;;;5053783;28;20072;-67
2021/12/12 07:43:54;;;;;;;57.45;27.27;;;6.50;99.90;;;;;;5053400;28;20418;-67
2021/12/12 07:46:20;;;;;;;70.00;27.15;;;6.40;99.90;;;;;;5052318;28;20041;-69
2021/12/12 07:48:49;;;;;;;73.28;27.58;;;6.30;99.90;;;;;;5053471;28;20128;-67
2021/12/12 07:51:16;;;;;;;60.80;25.90;;;6.50;99.90;;;;;;5036765;28;20033;-67
2021/12/12 07:53:42;;;;;;;56.78;26.00;;;6.70;99.90;;;;;;5053254;28;20060;-67
2021/12/12 07:56:08;;;;;;;60.75;27.92;;;6.60;99.90;;;;;;5052867;28;20029;-67
2021/12/12 07:58:36;;;;;;;61.78;27.40;;;6.40;99.90;;;;;;5053137;28;20040;-67
2021/12/12 08:01:05;;;;;;;69.90;28.50;;;6.50;99.90;;;;;;5053081;28;20516;-67
2021/12/12 08:03:33;;;;;;;79.07;29.42;;;6.60;99.90;;;;;;5053034;28;20037;-67
2021/12/12 08:06:00;;;;;;;72.88;30.70;;;;;;;;;;5052768;28;20049;-67
2021/12/12 08:08:27;;;;;;;73.03;28.90;;;;;;;;;;5052732;28;20585;-67
2021/12/12 08:10:55;;;;;;;79.68;29.70;;;6.70;99.90;;;;;;5053117;28;20064;-67
2021/12/12 08:13:21;;;;;;;72.60;27.20;;;;;;;;;;5052835;28;20051;-67
2021/12/12 08:15:48;;;;;;;67.28;27.90;;;6.70;99.90;;;;;;5053869;28;20136;-67
2021/12/12 08:18:15;;;;;;;69.15;28.85;;;;;;;;;;5052961;28;20466;-67
2021/12/12 08:20:43;;;;;;;80.97;27.73;;;6.90;99.90;;;;;;5052879;28;20048;-67
2021/12/12 08:23:10;;;;;;;74.47;28.90;;;6.80;99.90;;;;;;5052894;28;20498;-67
2021/12/12 08:25:36;;;;;;;72.18;27.42;;;8.10;99.90;;;;;;5052322;28;20073;-67
2021/12/12 08:28:04;;;;;;;73.75;29.35;;;7.00;99.90;;;;;;5052432;28;20067;-67
2021/12/12 08:30:31;;;;;;;78.20;29.05;;;;;;;;;;5052521;28;20033;-67
2021/12/12 08:32:58;;;;;;;85.38;29.80;;;;;;;;;;5052514;28;20045;-67
2021/12/12 08:35:24;;;;;;;80.53;29.52;;;;;;;;;;5053607;28;20415;-67
2021/12/12 08:37:50;;;;;;;86.13;31.77;;;7.20;99.90;;;;;;5052310;28;20045;-68
2021/12/12 08:40:23;;;;;;;88.00;32.05;;;7.00;99.90;;;;;;5053605;28;20076;-67
2021/12/12 08:42:50;;;;;;;83.97;31.23;;;7.20;99.90;;;;;;5052568;28;20037;-67
2021/12/12 08:45:27;;;;;;;80.78;29.00;;;7.10;99.90;;;;;;5052080;28;20387;-67
2021/12/12 08:47:53;;;;;;;96.28;33.33;;;;;;;;;;5051668;28;20048;-67
2021/12/12 08:50:21;;;;;;;87.97;32.58;;;;;;;;;;5052343;28;20045;-67
2021/12/12 08:52:48;;;;;;;106.50;34.65;;;;;;;;;;5052316;28;20041;-67
2021/12/12 08:55:19;;;;;;;101.78;33.20;;;;;;;;;;5052080;28;20461;-67
2021/12/12 08:57:57;;;;;;;100.35;33.70;;;7.10;99.90;;;;;;5052077;28;20055;-67
2021/12/12 09:00:26;;;;;;;100.93;32.95;;;7.20;99.90;;;;;;5051892;28;20065;-67
2021/12/12 09:02:53;;;;;;;103.95;33.50;;;7.30;99.90;;;;;;5052515;28;20048;-67
2021/12/12 09:05:22;;;;;;;107.40;35.28;;;;;;;;;;5053085;28;20045;-67
2021/12/12 09:07:51;;;;;;;110.40;35.33;;;7.20;99.90;;;;;;5051674;28;20045;-67
2021/12/12 09:10:21;;;;;;;114.63;35.55;;;7.30;99.90;;;;;;5051584;28;20037;-67
2021/12/12 09:13:06;;;;;;;112.47;36.45;;;7.40;99.90;;;;;;5051676;28;20059;-67
2021/12/12 09:15:37;;;;;;;127.63;38.15;;;7.30;99.90;;;;;;5051452;28;20044;-67
2021/12/12 09:18:27;;;;;;;116.72;37.67;;;7.40;99.90;;;;;;5051623;28;20045;-67
2021/12/12 09:20:59;;;;;;;110.35;36.00;;;7.30;99.90;;;;;;5040160;28;20049;-67
2021/12/12 09:23:27;;;;;;;115.07;37.33;;;;;;;;;;5051532;28;20041;-67
2021/12/12 09:26:02;;;;;;;114.80;36.50;;;;;;;;;;5051449;28;20525;-69
2021/12/12 09:28:34;;;;;;;129.73;38.92;;;7.50;99.90;;;;;;5051238;28;20041;-67
2021/12/12 09:31:06;;;;;;;107.90;36.42;;;7.60;99.90;;;;;;5051713;28;20044;-67
2021/12/12 09:33:49;;;;;;;109.95;36.47;;;7.30;99.90;;;;;;5051086;28;20037;-67
2021/12/12 09:36:40;;;;;;;113.38;34.70;;;7.60;99.90;;;;;;5051050;28;20090;-67
2021/12/12 09:39:35;;;;;;;116.15;38.20;;;7.50;99.90;;;;;;5041789;28;20083;-67
2021/12/12 09:42:16;;;;;;;115.30;36.85;;;;;;;;;;5051213;28;20095;-67
2021/12/12 09:45:04;;;;;;;115.30;36.30;;;7.80;99.90;;;;;;5051449;28;20392;-67
2021/12/12 09:48:03;;;;;;;123.90;37.47;;;;;;;;;;5050701;28;20501;-68
2021/12/12 09:53:51;;;;;;;118.03;36.27;;;7.60;99.90;;;;;;5051078;28;20059;-67
2021/12/12 09:56:45;;;;;;;118.85;36.53;;;7.60;99.90;;;;;;5051872;28;20049;-67
2021/12/12 09:59:54;;;;;;;107.35;34.83;;;7.70;99.90;;;;;;5046447;28;20506;-67
2021/12/12 10:02:28;;;;;;;134.20;38.90;;;7.70;99.90;;;;;;5024844;28;20053;-68
2021/12/12 10:05:13;;;;;;;117.63;36.13;;;;;;;;;;5034443;28;20090;-67
2021/12/12 10:07:55;;;;;;;119.70;35.50;;;7.80;99.90;;;;;;5050366;28;20056;-67
2021/12/12 10:10:33;;;;;;;122.32;37.72;;;7.80;99.90;;;;;;5050705;28;20134;-67
2021/12/12 10:13:06;;;;;;;139.25;39.35;;;7.80;99.90;;;;;;5050655;28;20045;-67
2021/12/12 10:15:42;;;;;;;124.85;35.30;;;7.90;99.90;;;;;;5050426;28;20128;-67
2021/12/12 10:18:29;;;;;;;112.93;34.70;;;7.80;99.90;;;;;;5050802;28;20111;-67
2021/12/12 10:21:01;;;;;;;107.55;33.35;;;7.80;99.90;;;;;;5050658;28;20163;-67
2021/12/12 10:24:06;;;;;;;104.13;34.07;;;7.80;99.90;;;;;;5050483;28;20110;-67
2021/12/12 10:26:38;;;;;;;103.15;34.42;;;8.00;99.90;;;;;;5050430;28;20289;-67
2021/12/12 10:29:08;;;;;;;104.22;33.65;;;8.00;99.90;;;;;;5050548;28;20041;-67
2021/12/12 10:31:42;;;;;;;95.30;32.75;;;7.90;99.90;;;;;;5050365;28;20076;-67
2021/12/12 10:34:18;;;;;;;108.93;34.15;;;8.00;99.90;;;;;;5050423;28;20099;-67
2021/12/12 10:37:17;;;;;;;107.85;33.22;;;8.10;99.90;;;;;;5051452;28;20041;-67
2021/12/12 10:40:02;;;;;;;103.32;33.40;;;8.00;99.90;;;;;;5050465;28;20041;-67
2021/12/12 10:42:33;;;;;;;103.57;33.03;;;8.10;99.90;;;;;;5050303;28;20045;-67
2021/12/12 10:45:27;;;;;;;98.57;32.38;;;8.10;99.90;;;;;;5049507;28;20562;-67
2021/12/12 10:48:01;;;;;;;95.40;31.25;;;8.10;99.90;;;;;;5049211;28;20088;-67
2021/12/12 10:50:37;;;;;;;98.88;33.13;;;8.20;99.90;;;;;;5050244;28;20037;-67
2021/12/12 10:53:29;;;;;;;93.72;30.10;;;8.10;99.90;;;;;;5050279;28;20581;-67
2021/12/12 10:56:16;;;;;;;86.13;29.08;;;8.00;99.90;;;;;;5049878;28;20088;-67
2021/12/12 10:58:51;;;;;;;84.78;28.27;;;8.20;99.90;;;;;;5033553;28;20040;-68
2021/12/12 11:01:22;;;;;;;87.10;29.38;;;8.40;99.90;;;;;;5051682;28;20063;-67
2021/12/12 11:04:01;;;;;;;99.18;30.00;;;8.40;99.90;;;;;;5050198;28;20091;-67
2021/12/12 11:06:29;;;;;;;75.07;27.17;;;;;;;;;;5033148;28;20036;-68
2021/12/12 11:09:06;;;;;;;80.38;27.42;;;8.40;99.90;;;;;;5049802;28;20083;-67
2021/12/12 11:11:39;;;;;;;77.13;27.58;;;8.40;99.90;;;;;;5049971;28;20087;-68
2021/12/12 11:14:21;;;;;;;84.97;29.23;;;8.30;99.90;;;;;;5050306;28;20588;-67
2021/12/12 11:16:51;;;;;;;82.93;29.98;;;8.50;99.90;;;;;;5049966;28;20524;-67
2021/12/12 11:19:41;;;;;;;80.93;26.13;;;8.40;99.90;;;;;;5050056;28;20059;-67
2021/12/12 11:22:27;;;;;;;70.18;23.85;;;8.50;99.90;;;;;;5033387;28;20041;-67
2021/12/12 11:24:58;;;;;;;76.72;25.63;;;8.60;99.90;;;;;;5051643;28;20037;-67
2021/12/12 11:27:31;;;;;;;69.35;23.25;;;8.50;99.90;;;;;;5049596;28;20041;-67
2021/12/12 11:30:11;;;;;;;64.57;24.03;;;8.50;99.90;;;;;;5033570;28;20036;-67
2021/12/12 11:32:38;;;;;;;61.58;22.55;;;8.60;99.90;;;;;;5033591;28;20071;-68
2021/12/12 11:35:07;;;;;;;61.78;22.98;;;8.70;99.90;;;;;;5049918;28;20047;-68
2021/12/12 11:37:52;;;;;;;69.35;25.08;;;8.70;99.90;;;;;;5049577;28;20131;-68
2021/12/12 11:40:30;;;;;;;64.65;23.23;;;8.50;99.90;;;;;;5049831;28;20331;-67
2021/12/12 11:43:10;;;;;;;69.75;24.40;;;8.60;99.90;;;;;;5050064;28;20194;-68
2021/12/12 11:45:42;;;;;;;73.88;25.60;;;8.60;99.90;;;;;;5049752;28;20063;-68
2021/12/12 11:48:34;;;;;;;63.30;21.98;;;8.70;99.90;;;;;;5049309;28;20103;-67
2021/12/12 11:51:11;;;;;;;64.80;23.58;;;8.70;99.90;;;;;;5066711;28;20437;-68
2021/12/12 11:53:50;;;;;;;62.35;22.00;;;8.80;99.90;;;;;;5049952;28;20085;-67
2021/12/12 11:56:25;;;;;;;67.53;23.33;;;8.70;99.90;;;;;;5051751;28;20044;-67
2021/12/12 11:58:56;;;;;;;60.97;21.23;;;8.60;99.90;;;;;;5053096;28;20033;-68
2021/12/12 12:01:51;;;;;;;70.38;22.92;;;8.70;99.90;;;;;;5053353;28;20167;-68
2021/12/12 12:04:22;;;;;;;59.08;20.75;;;8.60;99.90;;;;;;5053129;28;20044;-68
2021/12/12 12:07:09;;;;;;;60.55;21.70;;;8.70;99.90;;;;;;5052847;28;20426;-68
2021/12/12 12:09:35;;;;;;;65.45;23.25;;;8.70;99.90;;;;;;5065214;23;20072;-69
2021/12/12 12:12:17;;;;;;;65.53;24.17;;;8.50;99.90;;;;;;5016334;28;20073;-69
2021/12/12 12:15:12;;;;;;;65.78;21.88;;;8.70;99.90;;;;;;5016118;28;20503;-69
2021/12/12 12:17:47;;;;;;;64.80;22.90;;;8.80;99.90;;;;;;5016039;28;20047;-69
2021/12/12 12:20:19;;;;;;;66.63;22.88;;;;;;;;;;5016039;28;20076;-69
2021/12/12 12:22:53;;;;;;;69.95;22.67;;;8.90;99.90;;;;;;5033776;28;20495;-69
2021/12/12 12:28:29;;;;;;;73.85;24.05;;;;;;;;;;5016117;28;20081;-69
2021/12/12 12:31:19;;;;;;;77.15;24.70;;;9.00;99.90;;;;;;5015386;28;20045;-68
2021/12/12 12:34:04;;;;;;;72.57;24.58;;;;;;;;;;5015740;28;20124;-68
2021/12/12 12:36:58;;;;;;;71.80;23.23;;;9.00;99.90;;;;;;5015523;28;20407;-68
2021/12/12 12:40:01;;;;;;;65.85;22.55;;;9.00;99.90;;;;;;5026747;28;20451;-68
2021/12/12 12:43:03;;;;;;;58.25;21.40;;;9.10;99.90;;;;;;5011306;28;20131;-69
2021/12/12 12:46:17;;;;;;;64.43;21.23;;;9.10;99.90;;;;;;5011366;28;20063;-68
2021/12/12 12:48:43;;;;;;;59.28;21.13;;;;;;;;;;5011202;28;20440;-68
2021/12/12 12:51:27;;;;;;;57.47;22.17;;;8.90;99.90;;;;;;5010442;28;20045;-68
2021/12/12 12:54:16;;;;;;;67.35;21.95;;;9.10;99.90;;;;;;5010087;28;20051;-66
2021/12/12 12:57:16;;;;;;;53.50;19.98;;;8.90;99.90;;;;;;5006040;28;20072;-69
2021/12/12 13:00:06;;;;;;;59.85;21.67;;;9.20;99.90;;;;;;5012014;28;20411;-68
2021/12/12 13:03:02;;;;;;;76.57;22.90;;;9.00;99.90;;;;;;5012222;28;20128;-68
2021/12/12 13:06:02;;;;;;;70.38;22.17;;;9.10;99.90;;;;;;5011795;28;20049;-68
2021/12/12 13:08:49;;;;;;;58.75;20.35;;;9.00;99.90;;;;;;5010914;28;20041;-67
2021/12/12 13:11:20;;;;;;;69.10;21.48;;;9.30;99.90;;;;;;5011607;28;20041;-69
2021/12/12 13:13:59;;;;;;;56.58;20.80;;;9.00;99.90;;;;;;5011885;28;20048;-69
2021/12/12 13:17:01;;;;;;;70.50;24.10;;;10.10;99.90;;;;;;5011285;28;20034;-69
2021/12/12 13:19:39;;;;;;;62.83;22.33;;;;;;;;;;5011510;28;20072;-69
2021/12/12 13:22:22;;;;;;;60.10;20.08;;;9.10;99.90;;;;;;5011588;28;20037;-69
2021/12/12 13:24:57;;;;;;;66.25;21.45;;;9.40;99.90;;;;;;5011584;28;20092;-68
2021/12/12 13:30:28;;;;;;;70.45;22.25;;;9.40;99.90;;;;;;5011425;28;20056;-68
2021/12/12 13:33:15;;;;;;;52.50;21.42;;;9.10;99.90;;;;;;4995269;28;20052;-68
2021/12/12 13:35:59;;;;;;;59.25;21.13;;;9.00;99.90;;;;;;4994637;28;20045;-69
2021/12/12 13:38:37;;;;;;;59.97;20.83;;;9.00;99.90;;;;;;4993273;28;20056;-69
2021/12/12 13:41:18;;;;;;;56.92;19.75;;;9.20;99.90;;;;;;5009530;28;20077;-70
2021/12/12 13:43:44;;;;;;;63.22;20.67;;;;;;;;;;5008895;28;20041;-65
2021/12/12 13:46:10;;;;;;;42.72;17.58;;;;;;;;;;5010745;28;20132;-67
2021/12/12 13:48:47;;;;;;;45.45;17.25;;;9.20;99.90;;;;;;5010812;28;20033;-68
2021/12/12 13:51:30;;;;;;;54.17;19.38;;;9.30;99.90;;;;;;4994688;28;20084;-68
2021/12/12 13:54:21;;;;;;;47.30;17.90;;;9.20;99.90;;;;;;5011461;28;20486;-68
2021/12/12 13:57:08;;;;;;;48.28;17.60;;;9.00;99.90;;;;;;5010251;28;20116;-68
2021/12/12 13:59:34;;;;;;;42.58;16.77;;;;;;;;;;5024250;28;20040;-68
2021/12/12 14:02:09;;;;;;;41.00;16.83;;;9.10;99.90;;;;;;5010885;28;20555;-68
2021/12/12 14:04:49;;;;;;;51.47;18.13;;;9.20;99.90;;;;;;5011138;28;20091;-68